sensor_id;sensor_type;location;lat;lon;timestamp;temperature;humidity
10270;DHT22;70826;50.930;5.334;2023-08-01T00:02:21;26.90;85.90
10270;DHT22;70826;50.930;5.334;2023-08-01T00:04:50;26.90;85.90
10270;DHT22;70826;50.930;5.334;2023-08-01T00:07:15;26.90;85.90
10270;DHT22;70826;50.930;5.334;2023-08-01T00:09:41;26.90;85.90
10270;DHT22;70826;50.930;5.334;2023-08-01T00:12:09;26.90;85.90
10270;DHT22;70826;50.930;5.334;2023-08-01T00:14:39;26.90;85.90
10270;DHT22;70826;50.930;5.334;2023-08-01T00:17:07;26.90;85.90
10270;DHT22;70826;50.930;5.334;2023-08-01T00:19:35;26.90;85.90
10270;DHT22;70826;50.930;5.334;2023-08-01T00:22:01;26.90;85.90
10270;DHT22;70826;50.930;5.334;2023-08-01T00:24:28;26.90;85.90
10270;DHT22;70826;50.930;5.334;2023-08-01T00:26:54;26.90;85.90
10270;DHT22;70826;50.930;5.334;2023-08-01T00:29:22;26.90;85.90
10270;DHT22;70826;50.930;5.334;2023-08-01T00:31:50;26.90;85.90
10270;DHT22;70826;50.930;5.334;2023-08-01T00:34:18;26.90;85.90
10270;DHT22;70826;50.930;5.334;2023-08-01T00:36:49;26.90;85.90
10270;DHT22;70826;50.930;5.334;2023-08-01T00:39:17;26.90;85.90
10270;DHT22;70826;50.930;5.334;2023-08-01T00:41:45;26.90;85.90
10270;DHT22;70826;50.930;5.334;2023-08-01T00:44:13;26.90;85.90
10270;DHT22;70826;50.930;5.334;2023-08-01T00:46:39;26.90;85.90
10270;DHT22;70826;50.930;5.334;2023-08-01T00:49:09;26.90;85.90
10270;DHT22;70826;50.930;5.334;2023-08-01T00:51:41;26.90;85.90
10270;DHT22;70826;50.930;5.334;2023-08-01T00:54:11;26.90;85.90
10270;DHT22;70826;50.930;5.334;2023-08-01T00:56:39;26.90;85.90
10270;DHT22;70826;50.930;5.334;2023-08-01T00:59:07;26.90;85.90
10270;DHT22;70826;50.930;5.334;2023-08-01T01:01:33;26.90;85.90
10270;DHT22;70826;50.930;5.334;2023-08-01T01:03:59;26.90;85.90
10270;DHT22;70826;50.930;5.334;2023-08-01T01:08:57;26.90;85.90
10270;DHT22;70826;50.930;5.334;2023-08-01T01:11:27;26.90;85.90
10270;DHT22;70826;50.930;5.334;2023-08-01T01:13:55;26.90;85.90
10270;DHT22;70826;50.930;5.334;2023-08-01T01:16:26;26.90;85.90
10270;DHT22;70826;50.930;5.334;2023-08-01T01:18:56;26.90;85.90
10270;DHT22;70826;50.930;5.334;2023-08-01T01:21:24;26.90;85.90
10270;DHT22;70826;50.930;5.334;2023-08-01T01:23:57;26.90;85.90
10270;DHT22;70826;50.930;5.334;2023-08-01T01:26:27;26.90;85.90
10270;DHT22;70826;50.930;5.334;2023-08-01T01:28:55;26.90;85.90
10270;DHT22;70826;50.930;5.334;2023-08-01T01:31:21;26.90;85.90
10270;DHT22;70826;50.930;5.334;2023-08-01T01:33:52;26.90;85.90
10270;DHT22;70826;50.930;5.334;2023-08-01T01:36:18;26.90;85.90
10270;DHT22;70826;50.930;5.334;2023-08-01T01:38:46;26.90;85.90
10270;DHT22;70826;50.930;5.334;2023-08-01T01:41:14;26.90;85.90
10270;DHT22;70826;50.930;5.334;2023-08-01T01:43:42;26.90;85.90
10270;DHT22;70826;50.930;5.334;2023-08-01T01:46:07;26.90;85.90
10270;DHT22;70826;50.930;5.334;2023-08-01T01:48:35;26.90;85.90
10270;DHT22;70826;50.930;5.334;2023-08-01T01:51:01;26.90;86.50
10270;DHT22;70826;50.930;5.334;2023-08-01T01:53:26;26.90;85.80
10270;DHT22;70826;50.930;5.334;2023-08-01T01:55:52;26.90;85.90
10270;DHT22;70826;50.930;5.334;2023-08-01T01:58:23;26.90;85.90
10270;DHT22;70826;50.930;5.334;2023-08-01T02:00:51;26.90;85.90
10270;DHT22;70826;50.930;5.334;2023-08-01T02:03:19;26.90;85.80
10270;DHT22;70826;50.930;5.334;2023-08-01T02:05:47;26.90;85.90
10270;DHT22;70826;50.930;5.334;2023-08-01T02:08:17;26.90;85.80
10270;DHT22;70826;50.930;5.334;2023-08-01T02:10:45;26.90;85.80
10270;DHT22;70826;50.930;5.334;2023-08-01T02:13:10;26.90;85.80
10270;DHT22;70826;50.930;5.334;2023-08-01T02:15:36;26.90;85.80
10270;DHT22;70826;50.930;5.334;2023-08-01T02:18:02;26.90;85.80
10270;DHT22;70826;50.930;5.334;2023-08-01T02:20:30;26.90;85.80
10270;DHT22;70826;50.930;5.334;2023-08-01T02:22:58;26.90;85.80
10270;DHT22;70826;50.930;5.334;2023-08-01T02:25:28;26.90;85.80
10270;DHT22;70826;50.930;5.334;2023-08-01T02:27:53;26.90;85.80
10270;DHT22;70826;50.930;5.334;2023-08-01T02:30:24;26.90;85.90
10270;DHT22;70826;50.930;5.334;2023-08-01T02:32:56;26.90;85.90
10270;DHT22;70826;50.930;5.334;2023-08-01T02:35:24;26.90;85.80
10270;DHT22;70826;50.930;5.334;2023-08-01T02:37:58;26.90;85.80
10270;DHT22;70826;50.930;5.334;2023-08-01T02:40:24;26.90;85.80
10270;DHT22;70826;50.930;5.334;2023-08-01T02:42:54;26.90;85.80
10270;DHT22;70826;50.930;5.334;2023-08-01T02:45:20;26.90;85.80
10270;DHT22;70826;50.930;5.334;2023-08-01T02:47:47;26.90;85.80
10270;DHT22;70826;50.930;5.334;2023-08-01T02:50:15;26.90;85.80
10270;DHT22;70826;50.930;5.334;2023-08-01T02:52:41;26.90;85.80
10270;DHT22;70826;50.930;5.334;2023-08-01T02:55:07;26.90;85.80
10270;DHT22;70826;50.930;5.334;2023-08-01T02:57:36;26.90;85.80
10270;DHT22;70826;50.930;5.334;2023-08-01T03:00:04;26.90;85.80
10270;DHT22;70826;50.930;5.334;2023-08-01T03:02:39;26.90;85.80
10270;DHT22;70826;50.930;5.334;2023-08-01T03:05:08;26.90;85.80
10270;DHT22;70826;50.930;5.334;2023-08-01T03:07:37;26.90;85.80
10270;DHT22;70826;50.930;5.334;2023-08-01T03:10:05;26.90;85.80
10270;DHT22;70826;50.930;5.334;2023-08-01T03:12:32;26.90;85.80
10270;DHT22;70826;50.930;5.334;2023-08-01T03:15:03;26.90;85.80
10270;DHT22;70826;50.930;5.334;2023-08-01T03:17:29;26.90;85.80
10270;DHT22;70826;50.930;5.334;2023-08-01T03:19:57;26.90;85.80
10270;DHT22;70826;50.930;5.334;2023-08-01T03:22:23;26.90;85.80
10270;DHT22;70826;50.930;5.334;2023-08-01T03:24:48;26.90;85.80
10270;DHT22;70826;50.930;5.334;2023-08-01T03:27:16;26.90;85.80
10270;DHT22;70826;50.930;5.334;2023-08-01T03:29:49;26.90;85.80
10270;DHT22;70826;50.930;5.334;2023-08-01T03:32:14;26.90;85.80
10270;DHT22;70826;50.930;5.334;2023-08-01T03:34:42;26.90;85.70
10270;DHT22;70826;50.930;5.334;2023-08-01T03:37:10;26.90;86.40
10270;DHT22;70826;50.930;5.334;2023-08-01T03:39:38;26.90;85.80
10270;DHT22;70826;50.930;5.334;2023-08-01T03:42:10;26.90;85.80
10270;DHT22;70826;50.930;5.334;2023-08-01T03:44:36;26.90;85.80
10270;DHT22;70826;50.930;5.334;2023-08-01T03:47:07;26.90;85.80
10270;DHT22;70826;50.930;5.334;2023-08-01T03:49:32;26.90;85.70
10270;DHT22;70826;50.930;5.334;2023-08-01T03:52:06;26.90;85.70
10270;DHT22;70826;50.930;5.334;2023-08-01T03:54:34;26.90;85.70
10270;DHT22;70826;50.930;5.334;2023-08-01T03:57:05;26.90;85.70
10270;DHT22;70826;50.930;5.334;2023-08-01T03:59:31;26.90;85.70
10270;DHT22;70826;50.930;5.334;2023-08-01T04:01:56;26.90;85.70
10270;DHT22;70826;50.930;5.334;2023-08-01T04:04:22;26.90;85.70
10270;DHT22;70826;50.930;5.334;2023-08-01T04:06:47;26.90;85.70
10270;DHT22;70826;50.930;5.334;2023-08-01T04:09:13;26.90;85.70
10270;DHT22;70826;50.930;5.334;2023-08-01T04:11:41;26.90;85.70
10270;DHT22;70826;50.930;5.334;2023-08-01T04:14:11;26.90;85.70
10270;DHT22;70826;50.930;5.334;2023-08-01T04:16:39;26.90;85.70
10270;DHT22;70826;50.930;5.334;2023-08-01T04:19:10;26.90;85.70
10270;DHT22;70826;50.930;5.334;2023-08-01T04:21:38;26.90;85.70
10270;DHT22;70826;50.930;5.334;2023-08-01T04:24:04;26.90;85.70
10270;DHT22;70826;50.930;5.334;2023-08-01T04:26:29;26.90;85.70
10270;DHT22;70826;50.930;5.334;2023-08-01T04:28:55;26.90;85.70
10270;DHT22;70826;50.930;5.334;2023-08-01T04:31:21;26.90;85.70
10270;DHT22;70826;50.930;5.334;2023-08-01T04:33:49;26.90;85.60
10270;DHT22;70826;50.930;5.334;2023-08-01T04:36:17;26.90;85.70
10270;DHT22;70826;50.930;5.334;2023-08-01T04:38:42;26.90;85.60
10270;DHT22;70826;50.930;5.334;2023-08-01T04:41:08;26.90;85.70
10270;DHT22;70826;50.930;5.334;2023-08-01T04:43:34;26.90;85.70
10270;DHT22;70826;50.930;5.334;2023-08-01T04:45:59;26.90;85.70
10270;DHT22;70826;50.930;5.334;2023-08-01T04:48:25;26.90;85.70
10270;DHT22;70826;50.930;5.334;2023-08-01T04:50:55;26.90;85.60
10270;DHT22;70826;50.930;5.334;2023-08-01T04:53:21;26.90;85.60
10270;DHT22;70826;50.930;5.334;2023-08-01T04:55:46;26.90;85.60
10270;DHT22;70826;50.930;5.334;2023-08-01T04:58:17;26.90;85.60
10270;DHT22;70826;50.930;5.334;2023-08-01T05:00:45;26.90;85.60
10270;DHT22;70826;50.930;5.334;2023-08-01T05:03:10;26.90;85.60
10270;DHT22;70826;50.930;5.334;2023-08-01T05:05:36;26.90;85.60
10270;DHT22;70826;50.930;5.334;2023-08-01T05:08:06;26.90;85.60
10270;DHT22;70826;50.930;5.334;2023-08-01T05:10:34;26.90;85.60
10270;DHT22;70826;50.930;5.334;2023-08-01T05:13:00;26.90;85.60
10270;DHT22;70826;50.930;5.334;2023-08-01T05:15:26;26.90;85.60
10270;DHT22;70826;50.930;5.334;2023-08-01T05:17:52;26.90;85.50
10270;DHT22;70826;50.930;5.334;2023-08-01T05:20:18;26.90;85.50
10270;DHT22;70826;50.930;5.334;2023-08-01T05:22:44;26.90;85.50
10270;DHT22;70826;50.930;5.334;2023-08-01T05:25:12;26.90;85.50
10270;DHT22;70826;50.930;5.334;2023-08-01T05:27:40;26.90;85.50
10270;DHT22;70826;50.930;5.334;2023-08-01T05:30:10;26.90;85.50
10270;DHT22;70826;50.930;5.334;2023-08-01T05:32:38;26.90;85.50
10270;DHT22;70826;50.930;5.334;2023-08-01T05:35:08;26.90;85.50
10270;DHT22;70826;50.930;5.334;2023-08-01T05:37:36;26.90;85.50
10270;DHT22;70826;50.930;5.334;2023-08-01T05:40:07;26.90;85.50
10270;DHT22;70826;50.930;5.334;2023-08-01T05:42:33;26.90;85.50
10270;DHT22;70826;50.930;5.334;2023-08-01T05:44:58;26.90;85.50
10270;DHT22;70826;50.930;5.334;2023-08-01T05:47:31;26.90;85.50
10270;DHT22;70826;50.930;5.334;2023-08-01T05:49:59;26.90;85.40
10270;DHT22;70826;50.930;5.334;2023-08-01T05:52:29;26.90;85.40
10270;DHT22;70826;50.930;5.334;2023-08-01T05:54:55;26.90;85.40
10270;DHT22;70826;50.930;5.334;2023-08-01T05:57:22;26.90;85.40
10270;DHT22;70826;50.930;5.334;2023-08-01T05:59:50;26.90;85.40
10270;DHT22;70826;50.930;5.334;2023-08-01T06:02:18;26.90;85.40
10270;DHT22;70826;50.930;5.334;2023-08-01T06:04:49;26.90;85.40
10270;DHT22;70826;50.930;5.334;2023-08-01T06:07:14;26.90;85.30
10270;DHT22;70826;50.930;5.334;2023-08-01T06:09:40;26.90;85.30
10270;DHT22;70826;50.930;5.334;2023-08-01T06:12:10;26.90;85.40
10270;DHT22;70826;50.930;5.334;2023-08-01T06:14:38;26.90;85.40
10270;DHT22;70826;50.930;5.334;2023-08-01T06:17:09;26.90;85.30
10270;DHT22;70826;50.930;5.334;2023-08-01T06:19:39;26.90;85.40
10270;DHT22;70826;50.930;5.334;2023-08-01T06:22:07;26.90;85.30
10270;DHT22;70826;50.930;5.334;2023-08-01T06:24:32;26.90;85.30
10270;DHT22;70826;50.930;5.334;2023-08-01T06:27:03;26.90;85.30
10270;DHT22;70826;50.930;5.334;2023-08-01T06:29:28;26.90;85.30
10270;DHT22;70826;50.930;5.334;2023-08-01T06:31:56;26.90;85.30
10270;DHT22;70826;50.930;5.334;2023-08-01T06:34:22;26.90;85.30
10270;DHT22;70826;50.930;5.334;2023-08-01T06:36:48;26.90;85.30
10270;DHT22;70826;50.930;5.334;2023-08-01T06:39:21;26.90;85.30
10270;DHT22;70826;50.930;5.334;2023-08-01T06:41:49;26.90;85.30
10270;DHT22;70826;50.930;5.334;2023-08-01T06:44:19;26.90;85.20
10270;DHT22;70826;50.930;5.334;2023-08-01T06:46:47;26.90;85.30
10270;DHT22;70826;50.930;5.334;2023-08-01T06:49:17;26.90;85.30
10270;DHT22;70826;50.930;5.334;2023-08-01T06:51:45;26.90;85.30
10270;DHT22;70826;50.930;5.334;2023-08-01T06:54:11;26.90;85.20
10270;DHT22;70826;50.930;5.334;2023-08-01T06:56:39;26.90;85.20
10270;DHT22;70826;50.930;5.334;2023-08-01T06:59:05;26.90;85.20
10270;DHT22;70826;50.930;5.334;2023-08-01T07:01:37;26.90;85.30
10270;DHT22;70826;50.930;5.334;2023-08-01T07:04:06;26.90;85.30
10270;DHT22;70826;50.930;5.334;2023-08-01T07:06:34;26.90;85.30
10270;DHT22;70826;50.930;5.334;2023-08-01T07:08:59;26.90;85.20
10270;DHT22;70826;50.930;5.334;2023-08-01T07:11:25;26.90;85.20
10270;DHT22;70826;50.930;5.334;2023-08-01T07:13:53;26.80;85.10
10270;DHT22;70826;50.930;5.334;2023-08-01T07:16:21;26.90;85.20
10270;DHT22;70826;50.930;5.334;2023-08-01T07:18:51;26.90;85.20
10270;DHT22;70826;50.930;5.334;2023-08-01T07:21:19;26.90;85.20
10270;DHT22;70826;50.930;5.334;2023-08-01T07:23:49;26.90;85.20
10270;DHT22;70826;50.930;5.334;2023-08-01T07:26:15;26.90;85.20
10270;DHT22;70826;50.930;5.334;2023-08-01T07:28:43;26.90;85.30
10270;DHT22;70826;50.930;5.334;2023-08-01T07:31:11;26.90;85.30
10270;DHT22;70826;50.930;5.334;2023-08-01T07:33:37;26.90;85.30
10270;DHT22;70826;50.930;5.334;2023-08-01T07:36:09;26.90;85.30
10270;DHT22;70826;50.930;5.334;2023-08-01T07:38:37;26.90;85.30
10270;DHT22;70826;50.930;5.334;2023-08-01T07:41:06;26.90;85.30
10270;DHT22;70826;50.930;5.334;2023-08-01T07:43:32;26.90;85.30
10270;DHT22;70826;50.930;5.334;2023-08-01T07:46:03;26.90;85.20
10270;DHT22;70826;50.930;5.334;2023-08-01T07:48:31;26.90;85.20
10270;DHT22;70826;50.930;5.334;2023-08-01T07:51:00;26.90;85.20
10270;DHT22;70826;50.930;5.334;2023-08-01T07:53:29;26.90;85.20
10270;DHT22;70826;50.930;5.334;2023-08-01T07:55:57;26.90;85.20
10270;DHT22;70826;50.930;5.334;2023-08-01T07:58:27;26.90;85.20
10270;DHT22;70826;50.930;5.334;2023-08-01T08:00:55;26.90;85.20
10270;DHT22;70826;50.930;5.334;2023-08-01T08:03:21;26.90;85.20
10270;DHT22;70826;50.930;5.334;2023-08-01T08:05:50;26.90;85.20
10270;DHT22;70826;50.930;5.334;2023-08-01T08:08:15;26.90;85.30
10270;DHT22;70826;50.930;5.334;2023-08-01T08:10:43;26.90;85.30
10270;DHT22;70826;50.930;5.334;2023-08-01T08:13:11;26.90;85.30
10270;DHT22;70826;50.930;5.334;2023-08-01T08:15:41;26.90;85.30
10270;DHT22;70826;50.930;5.334;2023-08-01T08:18:09;26.90;85.30
10270;DHT22;70826;50.930;5.334;2023-08-01T08:20:42;26.90;85.30
10270;DHT22;70826;50.930;5.334;2023-08-01T08:23:11;26.90;85.20
10270;DHT22;70826;50.930;5.334;2023-08-01T08:25:40;26.90;85.20
10270;DHT22;70826;50.930;5.334;2023-08-01T08:28:11;26.90;85.20
10270;DHT22;70826;50.930;5.334;2023-08-01T08:30:36;26.90;85.20
10270;DHT22;70826;50.930;5.334;2023-08-01T08:33:03;26.90;85.20
10270;DHT22;70826;50.930;5.334;2023-08-01T08:35:33;26.90;85.20
10270;DHT22;70826;50.930;5.334;2023-08-01T08:38:02;26.90;85.20
10270;DHT22;70826;50.930;5.334;2023-08-01T08:40:31;26.80;85.20
10270;DHT22;70826;50.930;5.334;2023-08-01T08:43:01;26.80;85.20
10270;DHT22;70826;50.930;5.334;2023-08-01T08:45:29;26.80;85.20
10270;DHT22;70826;50.930;5.334;2023-08-01T08:48:00;26.80;85.20
10270;DHT22;70826;50.930;5.334;2023-08-01T08:50:26;26.80;85.10
10270;DHT22;70826;50.930;5.334;2023-08-01T08:52:53;26.80;85.10
10270;DHT22;70826;50.930;5.334;2023-08-01T08:55:20;26.80;85.10
10270;DHT22;70826;50.930;5.334;2023-08-01T08:57:49;26.80;85.10
10270;DHT22;70826;50.930;5.334;2023-08-01T09:00:18;26.80;85.20
10270;DHT22;70826;50.930;5.334;2023-08-01T09:02:49;26.80;85.10
10270;DHT22;70826;50.930;5.334;2023-08-01T09:05:15;26.80;85.10
10270;DHT22;70826;50.930;5.334;2023-08-01T09:07:45;26.80;85.10
10270;DHT22;70826;50.930;5.334;2023-08-01T09:10:15;26.80;85.10
10270;DHT22;70826;50.930;5.334;2023-08-01T09:12:48;26.80;85.10
10270;DHT22;70826;50.930;5.334;2023-08-01T09:15:16;26.80;85.10
10270;DHT22;70826;50.930;5.334;2023-08-01T09:17:54;26.80;85.10
10270;DHT22;70826;50.930;5.334;2023-08-01T09:20:24;26.80;85.00
10270;DHT22;70826;50.930;5.334;2023-08-01T09:22:52;26.80;85.00
10270;DHT22;70826;50.930;5.334;2023-08-01T09:25:31;26.80;85.00
10270;DHT22;70826;50.930;5.334;2023-08-01T09:27:57;26.80;85.00
10270;DHT22;70826;50.930;5.334;2023-08-01T09:30:23;26.80;85.00
10270;DHT22;70826;50.930;5.334;2023-08-01T09:32:55;26.80;85.00
10270;DHT22;70826;50.930;5.334;2023-08-01T09:35:22;26.80;85.00
10270;DHT22;70826;50.930;5.334;2023-08-01T09:37:48;26.80;85.00
10270;DHT22;70826;50.930;5.334;2023-08-01T09:40:16;26.80;85.00
10270;DHT22;70826;50.930;5.334;2023-08-01T09:42:45;26.80;85.00
10270;DHT22;70826;50.930;5.334;2023-08-01T09:45:14;26.80;84.90
10270;DHT22;70826;50.930;5.334;2023-08-01T09:47:45;26.80;84.90
10270;DHT22;70826;50.930;5.334;2023-08-01T09:50:13;26.80;84.90
10270;DHT22;70826;50.930;5.334;2023-08-01T09:52:47;26.80;84.90
10270;DHT22;70826;50.930;5.334;2023-08-01T09:55:31;26.80;84.90
10270;DHT22;70826;50.930;5.334;2023-08-01T09:57:59;26.80;84.90
10270;DHT22;70826;50.930;5.334;2023-08-01T10:00:28;26.80;84.80
10270;DHT22;70826;50.930;5.334;2023-08-01T10:03:00;26.80;84.80
10270;DHT22;70826;50.930;5.334;2023-08-01T10:05:29;26.80;84.80
10270;DHT22;70826;50.930;5.334;2023-08-01T10:07:59;26.80;84.80
10270;DHT22;70826;50.930;5.334;2023-08-01T10:10:28;26.80;84.70
10270;DHT22;70826;50.930;5.334;2023-08-01T10:13:01;26.80;84.80
10270;DHT22;70826;50.930;5.334;2023-08-01T10:15:31;26.80;85.30
10270;DHT22;70826;50.930;5.334;2023-08-01T10:18:00;26.80;85.60
10270;DHT22;70826;50.930;5.334;2023-08-01T10:20:30;26.70;85.70
10270;DHT22;70826;50.930;5.334;2023-08-01T10:23:01;26.80;86.00
10270;DHT22;70826;50.930;5.334;2023-08-01T10:25:29;26.80;86.00
10270;DHT22;70826;50.930;5.334;2023-08-01T10:31:12;26.90;86.10
10270;DHT22;70826;50.930;5.334;2023-08-01T10:33:40;27.00;86.00
10270;DHT22;70826;50.930;5.334;2023-08-01T10:36:21;27.00;85.90
10270;DHT22;70826;50.930;5.334;2023-08-01T10:38:54;27.00;86.40
10270;DHT22;70826;50.930;5.334;2023-08-01T10:41:30;27.10;85.80
10270;DHT22;70826;50.930;5.334;2023-08-01T10:44:13;27.00;85.60
10270;DHT22;70826;50.930;5.334;2023-08-01T10:46:53;27.10;85.60
10270;DHT22;70826;50.930;5.334;2023-08-01T10:49:31;27.10;85.60
10270;DHT22;70826;50.930;5.334;2023-08-01T10:51:57;27.10;85.50
10270;DHT22;70826;50.930;5.334;2023-08-01T10:54:24;27.10;85.40
10270;DHT22;70826;50.930;5.334;2023-08-01T10:56:52;27.10;85.40
10270;DHT22;70826;50.930;5.334;2023-08-01T10:59:18;27.10;85.80
10270;DHT22;70826;50.930;5.334;2023-08-01T11:01:49;27.10;85.20
10270;DHT22;70826;50.930;5.334;2023-08-01T11:04:16;27.10;85.10
10270;DHT22;70826;50.930;5.334;2023-08-01T11:06:46;27.10;85.00
10270;DHT22;70826;50.930;5.334;2023-08-01T11:09:22;27.10;84.80
10270;DHT22;70826;50.930;5.334;2023-08-01T11:11:51;27.10;84.80
10270;DHT22;70826;50.930;5.334;2023-08-01T11:14:23;27.10;84.70
10270;DHT22;70826;50.930;5.334;2023-08-01T11:16:54;27.10;84.80
10270;DHT22;70826;50.930;5.334;2023-08-01T11:19:24;27.10;84.80
10270;DHT22;70826;50.930;5.334;2023-08-01T11:21:58;27.10;84.90
10270;DHT22;70826;50.930;5.334;2023-08-01T11:24:25;27.10;85.00
10270;DHT22;70826;50.930;5.334;2023-08-01T11:26:56;27.20;85.10
10270;DHT22;70826;50.930;5.334;2023-08-01T11:29:24;27.20;85.10
10270;DHT22;70826;50.930;5.334;2023-08-01T11:31:59;27.30;85.10
10270;DHT22;70826;50.930;5.334;2023-08-01T11:34:25;27.30;85.10
10270;DHT22;70826;50.930;5.334;2023-08-01T11:36:58;27.40;85.20
10270;DHT22;70826;50.930;5.334;2023-08-01T11:39:27;27.40;85.30
10270;DHT22;70826;50.930;5.334;2023-08-01T11:41:55;27.40;85.40
10270;DHT22;70826;50.930;5.334;2023-08-01T11:44:24;27.40;85.30
10270;DHT22;70826;50.930;5.334;2023-08-01T11:46:50;27.40;85.10
10270;DHT22;70826;50.930;5.334;2023-08-01T11:49:16;27.50;85.00
10270;DHT22;70826;50.930;5.334;2023-08-01T11:51:43;27.50;84.90
10270;DHT22;70826;50.930;5.334;2023-08-01T11:54:14;27.40;84.70
10270;DHT22;70826;50.930;5.334;2023-08-01T11:56:43;27.50;84.70
10270;DHT22;70826;50.930;5.334;2023-08-01T11:59:12;27.40;84.50
10270;DHT22;70826;50.930;5.334;2023-08-01T12:01:46;27.50;84.60
10270;DHT22;70826;50.930;5.334;2023-08-01T12:04:23;27.50;84.50
10270;DHT22;70826;50.930;5.334;2023-08-01T12:06:49;27.50;84.40
10270;DHT22;70826;50.930;5.334;2023-08-01T12:09:14;27.40;84.30
10270;DHT22;70826;50.930;5.334;2023-08-01T12:11:41;27.50;84.40
10270;DHT22;70826;50.930;5.334;2023-08-01T12:14:07;27.40;84.20
10270;DHT22;70826;50.930;5.334;2023-08-01T12:16:37;27.50;84.20
10270;DHT22;70826;50.930;5.334;2023-08-01T12:19:03;27.40;84.10
10270;DHT22;70826;50.930;5.334;2023-08-01T12:21:30;27.40;84.10
10270;DHT22;70826;50.930;5.334;2023-08-01T12:23:56;27.40;84.00
10270;DHT22;70826;50.930;5.334;2023-08-01T12:26:23;27.40;84.50
10270;DHT22;70826;50.930;5.334;2023-08-01T12:28:54;27.40;83.60
10270;DHT22;70826;50.930;5.334;2023-08-01T12:31:22;27.40;83.60
10270;DHT22;70826;50.930;5.334;2023-08-01T12:33:48;27.40;83.40
10270;DHT22;70826;50.930;5.334;2023-08-01T12:36:17;27.40;83.40
10270;DHT22;70826;50.930;5.334;2023-08-01T12:38:43;27.40;83.40
10270;DHT22;70826;50.930;5.334;2023-08-01T12:41:09;27.40;83.30
10270;DHT22;70826;50.930;5.334;2023-08-01T12:43:34;27.40;83.30
10270;DHT22;70826;50.930;5.334;2023-08-01T12:46:00;27.40;83.20
10270;DHT22;70826;50.930;5.334;2023-08-01T12:48:27;27.30;83.20
10270;DHT22;70826;50.930;5.334;2023-08-01T12:50:53;27.30;83.10
10270;DHT22;70826;50.930;5.334;2023-08-01T12:53:19;27.30;83.10
10270;DHT22;70826;50.930;5.334;2023-08-01T12:55:46;27.30;83.10
10270;DHT22;70826;50.930;5.334;2023-08-01T12:58:13;27.30;83.10
10270;DHT22;70826;50.930;5.334;2023-08-01T13:00:39;27.30;83.10
10270;DHT22;70826;50.930;5.334;2023-08-01T13:03:08;27.30;83.10
10270;DHT22;70826;50.930;5.334;2023-08-01T13:05:38;27.30;83.00
10270;DHT22;70826;50.930;5.334;2023-08-01T13:08:04;27.20;82.90
10270;DHT22;70826;50.930;5.334;2023-08-01T13:10:31;27.20;82.90
10270;DHT22;70826;50.930;5.334;2023-08-01T13:12:57;27.20;83.60
10270;DHT22;70826;50.930;5.334;2023-08-01T13:15:26;27.20;83.00
10270;DHT22;70826;50.930;5.334;2023-08-01T13:17:54;27.20;83.00
10270;DHT22;70826;50.930;5.334;2023-08-01T13:20:20;27.20;83.00
10270;DHT22;70826;50.930;5.334;2023-08-01T13:22:51;27.20;83.00
10270;DHT22;70826;50.930;5.334;2023-08-01T13:25:21;27.20;82.90
10270;DHT22;70826;50.930;5.334;2023-08-01T13:27:49;27.20;82.90
10270;DHT22;70826;50.930;5.334;2023-08-01T13:30:19;27.20;83.00
10270;DHT22;70826;50.930;5.334;2023-08-01T13:32:53;27.20;83.00
10270;DHT22;70826;50.930;5.334;2023-08-01T13:35:21;27.20;83.00
10270;DHT22;70826;50.930;5.334;2023-08-01T13:37:48;27.20;82.90
10270;DHT22;70826;50.930;5.334;2023-08-01T13:40:15;27.20;82.80
10270;DHT22;70826;50.930;5.334;2023-08-01T13:42:46;27.20;82.80
10270;DHT22;70826;50.930;5.334;2023-08-01T13:45:16;27.10;82.70
10270;DHT22;70826;50.930;5.334;2023-08-01T13:47:44;27.10;82.70
10270;DHT22;70826;50.930;5.334;2023-08-01T13:50:09;27.10;82.70
10270;DHT22;70826;50.930;5.334;2023-08-01T13:52:37;27.10;82.70
10270;DHT22;70826;50.930;5.334;2023-08-01T13:55:05;27.10;82.70
10270;DHT22;70826;50.930;5.334;2023-08-01T13:57:35;27.10;82.70
10270;DHT22;70826;50.930;5.334;2023-08-01T14:00:05;27.10;82.70
10270;DHT22;70826;50.930;5.334;2023-08-01T14:02:33;27.10;82.70
10270;DHT22;70826;50.930;5.334;2023-08-01T14:05:01;27.10;82.70
10270;DHT22;70826;50.930;5.334;2023-08-01T14:07:29;27.10;82.70
10270;DHT22;70826;50.930;5.334;2023-08-01T14:09:57;27.10;82.70
10270;DHT22;70826;50.930;5.334;2023-08-01T14:12:23;27.10;82.70
10270;DHT22;70826;50.930;5.334;2023-08-01T14:14:52;27.10;82.70
10270;DHT22;70826;50.930;5.334;2023-08-01T14:17:20;27.10;82.70
10270;DHT22;70826;50.930;5.334;2023-08-01T14:19:48;27.10;82.70
10270;DHT22;70826;50.930;5.334;2023-08-01T14:22:18;27.10;82.70
10270;DHT22;70826;50.930;5.334;2023-08-01T14:24:46;27.10;82.70
10270;DHT22;70826;50.930;5.334;2023-08-01T14:27:14;27.10;82.80
10270;DHT22;70826;50.930;5.334;2023-08-01T14:29:40;27.00;82.70
10270;DHT22;70826;50.930;5.334;2023-08-01T14:32:06;27.10;82.90
10270;DHT22;70826;50.930;5.334;2023-08-01T14:34:34;27.10;82.90
10270;DHT22;70826;50.930;5.334;2023-08-01T14:37:06;27.00;82.80
10270;DHT22;70826;50.930;5.334;2023-08-01T14:39:31;27.00;82.80
10270;DHT22;70826;50.930;5.334;2023-08-01T14:41:59;27.00;82.80
10270;DHT22;70826;50.930;5.334;2023-08-01T14:44:25;27.00;82.80
10270;DHT22;70826;50.930;5.334;2023-08-01T14:46:53;27.00;82.70
10270;DHT22;70826;50.930;5.334;2023-08-01T14:49:24;27.00;82.70
10270;DHT22;70826;50.930;5.334;2023-08-01T14:51:55;27.00;82.60
10270;DHT22;70826;50.930;5.334;2023-08-01T14:54:20;27.00;82.60
10270;DHT22;70826;50.930;5.334;2023-08-01T14:56:49;27.00;82.60
10270;DHT22;70826;50.930;5.334;2023-08-01T14:59:17;27.00;82.50
10270;DHT22;70826;50.930;5.334;2023-08-01T15:01:42;27.00;82.40
10270;DHT22;70826;50.930;5.334;2023-08-01T15:04:08;27.00;82.40
10270;DHT22;70826;50.930;5.334;2023-08-01T15:06:34;27.00;82.40
10270;DHT22;70826;50.930;5.334;2023-08-01T15:09:02;27.00;82.30
10270;DHT22;70826;50.930;5.334;2023-08-01T15:11:32;27.00;82.30
10270;DHT22;70826;50.930;5.334;2023-08-01T15:14:00;27.00;82.30
10270;DHT22;70826;50.930;5.334;2023-08-01T15:16:25;27.00;82.30
10270;DHT22;70826;50.930;5.334;2023-08-01T15:18:53;27.00;82.30
10270;DHT22;70826;50.930;5.334;2023-08-01T15:21:24;27.00;82.30
10270;DHT22;70826;50.930;5.334;2023-08-01T15:23:56;27.00;82.30
10270;DHT22;70826;50.930;5.334;2023-08-01T15:26:24;27.00;82.30
10270;DHT22;70826;50.930;5.334;2023-08-01T15:28:52;27.00;82.30
10270;DHT22;70826;50.930;5.334;2023-08-01T15:31:22;27.00;82.30
10270;DHT22;70826;50.930;5.334;2023-08-01T15:33:50;26.90;82.30
10270;DHT22;70826;50.930;5.334;2023-08-01T15:36:28;27.00;82.30
10270;DHT22;70826;50.930;5.334;2023-08-01T15:38:57;27.00;82.30
10270;DHT22;70826;50.930;5.334;2023-08-01T15:41:23;27.00;82.30
10270;DHT22;70826;50.930;5.334;2023-08-01T15:43:49;27.00;82.30